sensor_id;sensor_type;location;lat;lon;timestamp;pressure;altitude;pressure_sealevel;temperature
64916;BMP280;51427;-27.442;153.014;2022-10-16T00:01:27;101732.44;;;27.45
64916;BMP280;51427;-27.442;153.014;2022-10-16T00:03:56;101711.00;;;26.70
64916;BMP280;51427;-27.442;153.014;2022-10-16T00:06:24;101709.09;;;27.77
64916;BMP280;51427;-27.442;153.014;2022-10-16T00:08:52;101718.25;;;26.84
64916;BMP280;51427;-27.442;153.014;2022-10-16T00:11:23;101731.03;;;26.96
64916;BMP280;51427;-27.442;153.014;2022-10-16T00:13:54;101707.91;;;27.05
64916;BMP280;51427;-27.442;153.014;2022-10-16T00:16:21;101714.53;;;27.09
64916;BMP280;51427;-27.442;153.014;2022-10-16T00:18:48;101701.03;;;28.73
64916;BMP280;51427;-27.442;153.014;2022-10-16T00:21:21;101710.88;;;27.10
64916;BMP280;51427;-27.442;153.014;2022-10-16T00:24:03;101712.47;;;27.93
64916;BMP280;51427;-27.442;153.014;2022-10-16T00:26:35;101700.50;;;27.45
64916;BMP280;51427;-27.442;153.014;2022-10-16T00:29:03;101693.91;;;28.22
64916;BMP280;51427;-27.442;153.014;2022-10-16T00:31:30;101688.03;;;28.27
64916;BMP280;51427;-27.442;153.014;2022-10-16T00:33:58;101692.28;;;27.32
64916;BMP280;51427;-27.442;153.014;2022-10-16T00:36:27;101691.88;;;28.10
64916;BMP280;51427;-27.442;153.014;2022-10-16T00:38:55;101674.25;;;28.37
64916;BMP280;51427;-27.442;153.014;2022-10-16T00:41:25;101678.28;;;28.33
64916;BMP280;51427;-27.442;153.014;2022-10-16T00:43:57;101679.25;;;27.82
64916;BMP280;51427;-27.442;153.014;2022-10-16T00:46:26;101668.41;;;27.69
64916;BMP280;51427;-27.442;153.014;2022-10-16T00:51:35;101659.41;;;29.13
64916;BMP280;51427;-27.442;153.014;2022-10-16T00:54:07;101660.53;;;27.89
64916;BMP280;51427;-27.442;153.014;2022-10-16T00:56:36;101665.72;;;28.05
64916;BMP280;51427;-27.442;153.014;2022-10-16T00:59:18;101656.31;;;28.75
64916;BMP280;51427;-27.442;153.014;2022-10-16T01:01:46;101656.22;;;28.39
64916;BMP280;51427;-27.442;153.014;2022-10-16T01:04:13;101656.00;;;27.31
64916;BMP280;51427;-27.442;153.014;2022-10-16T01:09:34;101643.72;;;27.89
64916;BMP280;51427;-27.442;153.014;2022-10-16T01:15:29;101634.31;;;26.51
64916;BMP280;51427;-27.442;153.014;2022-10-16T01:18:02;101618.28;;;26.67
64916;BMP280;51427;-27.442;153.014;2022-10-16T01:20:34;101613.06;;;27.12
64916;BMP280;51427;-27.442;153.014;2022-10-16T01:28:23;101606.41;;;27.30
64916;BMP280;51427;-27.442;153.014;2022-10-16T01:30:55;101599.91;;;26.88
64916;BMP280;51427;-27.442;153.014;2022-10-16T01:33:30;101596.91;;;26.53
64916;BMP280;51427;-27.442;153.014;2022-10-16T01:36:13;101588.13;;;26.52
64916;BMP280;51427;-27.442;153.014;2022-10-16T01:38:44;101590.19;;;26.35
64916;BMP280;51427;-27.442;153.014;2022-10-16T01:41:22;101580.19;;;26.37
64916;BMP280;51427;-27.442;153.014;2022-10-16T01:44:30;101562.25;;;26.39
64916;BMP280;51427;-27.442;153.014;2022-10-16T01:46:59;101560.59;;;26.68
64916;BMP280;51427;-27.442;153.014;2022-10-16T01:49:31;101558.56;;;25.94
64916;BMP280;51427;-27.442;153.014;2022-10-16T01:52:02;101548.63;;;26.34
64916;BMP280;51427;-27.442;153.014;2022-10-16T01:54:31;101551.59;;;26.46
64916;BMP280;51427;-27.442;153.014;2022-10-16T01:57:00;101542.34;;;26.95
64916;BMP280;51427;-27.442;153.014;2022-10-16T01:59:31;101545.34;;;26.24
64916;BMP280;51427;-27.442;153.014;2022-10-16T02:02:04;101536.56;;;26.84
64916;BMP280;51427;-27.442;153.014;2022-10-16T02:04:36;101539.22;;;26.61
64916;BMP280;51427;-27.442;153.014;2022-10-16T02:07:05;101530.97;;;26.02
64916;BMP280;51427;-27.442;153.014;2022-10-16T02:09:34;101530.97;;;27.01
64916;BMP280;51427;-27.442;153.014;2022-10-16T02:12:11;101526.94;;;27.27
64916;BMP280;51427;-27.442;153.014;2022-10-16T02:14:40;101530.50;;;26.67
64916;BMP280;51427;-27.442;153.014;2022-10-16T02:17:13;101517.00;;;27.21
64916;BMP280;51427;-27.442;153.014;2022-10-16T02:19:41;101518.66;;;27.59
64916;BMP280;51427;-27.442;153.014;2022-10-16T02:22:12;101525.16;;;26.75
64916;BMP280;51427;-27.442;153.014;2022-10-16T02:24:56;101519.69;;;28.01
64916;BMP280;51427;-27.442;153.014;2022-10-16T02:27:33;101515.19;;;27.58
64916;BMP280;51427;-27.442;153.014;2022-10-16T02:33:00;101506.56;;;26.67
64916;BMP280;51427;-27.442;153.014;2022-10-16T02:35:28;101511.44;;;26.34
64916;BMP280;51427;-27.442;153.014;2022-10-16T02:37:56;101507.94;;;26.33
64916;BMP280;51427;-27.442;153.014;2022-10-16T02:40:24;101502.69;;;26.78
64916;BMP280;51427;-27.442;153.014;2022-10-16T02:42:54;101488.91;;;27.19
64916;BMP280;51427;-27.442;153.014;2022-10-16T02:45:22;101492.00;;;27.44
64916;BMP280;51427;-27.442;153.014;2022-10-16T02:47:50;101485.78;;;27.52
64916;BMP280;51427;-27.442;153.014;2022-10-16T02:50:17;101473.97;;;26.73
64916;BMP280;51427;-27.442;153.014;2022-10-16T02:52:44;101488.50;;;26.85
64916;BMP280;51427;-27.442;153.014;2022-10-16T02:55:12;101483.53;;;26.82
64916;BMP280;51427;-27.442;153.014;2022-10-16T02:57:39;101476.41;;;26.30
64916;BMP280;51427;-27.442;153.014;2022-10-16T03:00:08;101475.16;;;26.71
64916;BMP280;51427;-27.442;153.014;2022-10-16T03:02:36;101482.59;;;26.15
64916;BMP280;51427;-27.442;153.014;2022-10-16T03:05:04;101470.88;;;26.40
64916;BMP280;51427;-27.442;153.014;2022-10-16T03:07:31;101459.19;;;26.48
64916;BMP280;51427;-27.442;153.014;2022-10-16T03:09:58;101465.09;;;26.36
64916;BMP280;51427;-27.442;153.014;2022-10-16T03:12:29;101462.13;;;27.35
64916;BMP280;51427;-27.442;153.014;2022-10-16T03:14:56;101460.00;;;26.49
64916;BMP280;51427;-27.442;153.014;2022-10-16T03:17:24;101459.28;;;26.63
64916;BMP280;51427;-27.442;153.014;2022-10-16T03:19:51;101448.34;;;27.53
64916;BMP280;51427;-27.442;153.014;2022-10-16T03:22:18;101453.25;;;26.91
64916;BMP280;51427;-27.442;153.014;2022-10-16T03:24:46;101454.44;;;25.98
64916;BMP280;51427;-27.442;153.014;2022-10-16T03:27:13;101448.84;;;26.53
64916;BMP280;51427;-27.442;153.014;2022-10-16T03:29:40;101450.16;;;25.89
64916;BMP280;51427;-27.442;153.014;2022-10-16T03:32:07;101441.47;;;26.63
64916;BMP280;51427;-27.442;153.014;2022-10-16T03:34:35;101427.16;;;26.87
64916;BMP280;51427;-27.442;153.014;2022-10-16T03:37:02;101433.97;;;26.67
64916;BMP280;51427;-27.442;153.014;2022-10-16T03:39:30;101424.97;;;26.15
64916;BMP280;51427;-27.442;153.014;2022-10-16T03:41:57;101417.34;;;27.24
64916;BMP280;51427;-27.442;153.014;2022-10-16T03:44:24;101431.53;;;26.05
64916;BMP280;51427;-27.442;153.014;2022-10-16T03:46:51;101419.44;;;26.33
64916;BMP280;51427;-27.442;153.014;2022-10-16T03:49:18;101423.69;;;25.73
64916;BMP280;51427;-27.442;153.014;2022-10-16T03:51:46;101418.31;;;26.49
64916;BMP280;51427;-27.442;153.014;2022-10-16T03:54:13;101425.94;;;26.52
64916;BMP280;51427;-27.442;153.014;2022-10-16T03:56:40;101426.31;;;27.08
64916;BMP280;51427;-27.442;153.014;2022-10-16T03:59:07;101417.03;;;28.05
64916;BMP280;51427;-27.442;153.014;2022-10-16T04:01:34;101431.31;;;26.89
64916;BMP280;51427;-27.442;153.014;2022-10-16T04:04:02;101426.69;;;26.83
64916;BMP280;51427;-27.442;153.014;2022-10-16T04:06:29;101422.84;;;27.22
64916;BMP280;51427;-27.442;153.014;2022-10-16T04:08:56;101420.72;;;26.59
64916;BMP280;51427;-27.442;153.014;2022-10-16T04:11:23;101429.91;;;25.42
64916;BMP280;51427;-27.442;153.014;2022-10-16T04:13:51;101431.59;;;25.27
64916;BMP280;51427;-27.442;153.014;2022-10-16T04:16:18;101429.25;;;25.48
64916;BMP280;51427;-27.442;153.014;2022-10-16T04:18:45;101421.13;;;25.34
64916;BMP280;51427;-27.442;153.014;2022-10-16T04:21:12;101417.84;;;25.32
64916;BMP280;51427;-27.442;153.014;2022-10-16T04:23:39;101412.91;;;25.75
64916;BMP280;51427;-27.442;153.014;2022-10-16T04:26:07;101406.47;;;25.53
64916;BMP280;51427;-27.442;153.014;2022-10-16T04:28:34;101399.63;;;26.05
64916;BMP280;51427;-27.442;153.014;2022-10-16T04:31:04;101406.38;;;26.15
64916;BMP280;51427;-27.442;153.014;2022-10-16T04:33:32;101404.63;;;25.62
64916;BMP280;51427;-27.442;153.014;2022-10-16T04:36:00;101409.09;;;26.38
64916;BMP280;51427;-27.442;153.014;2022-10-16T04:38:28;101395.72;;;25.93
64916;BMP280;51427;-27.442;153.014;2022-10-16T04:40:55;101388.34;;;26.03
64916;BMP280;51427;-27.442;153.014;2022-10-16T04:43:23;101406.50;;;25.92
64916;BMP280;51427;-27.442;153.014;2022-10-16T04:45:50;101404.56;;;26.16
64916;BMP280;51427;-27.442;153.014;2022-10-16T04:48:18;101396.09;;;26.43
64916;BMP280;51427;-27.442;153.014;2022-10-16T04:50:45;101400.00;;;25.64
64916;BMP280;51427;-27.442;153.014;2022-10-16T04:53:12;101404.81;;;25.52
64916;BMP280;51427;-27.442;153.014;2022-10-16T04:55:41;101386.53;;;26.03
64916;BMP280;51427;-27.442;153.014;2022-10-16T04:58:08;101375.56;;;26.73
64916;BMP280;51427;-27.442;153.014;2022-10-16T05:00:36;101389.88;;;25.59
64916;BMP280;51427;-27.442;153.014;2022-10-16T05:03:04;101375.47;;;25.92
64916;BMP280;51427;-27.442;153.014;2022-10-16T05:05:35;101385.03;;;25.63
64916;BMP280;51427;-27.442;153.014;2022-10-16T05:08:03;101393.59;;;25.35
64916;BMP280;51427;-27.442;153.014;2022-10-16T05:10:30;101383.53;;;25.76
64916;BMP280;51427;-27.442;153.014;2022-10-16T05:12:57;101397.28;;;25.26
64916;BMP280;51427;-27.442;153.014;2022-10-16T05:15:25;101389.94;;;25.44
64916;BMP280;51427;-27.442;153.014;2022-10-16T05:17:55;101398.31;;;24.77
64916;BMP280;51427;-27.442;153.014;2022-10-16T05:20:23;101399.63;;;25.05
64916;BMP280;51427;-27.442;153.014;2022-10-16T05:22:51;101406.91;;;24.63
64916;BMP280;51427;-27.442;153.014;2022-10-16T05:25:18;101402.50;;;25.65
64916;BMP280;51427;-27.442;153.014;2022-10-16T05:27:49;101399.53;;;26.21
64916;BMP280;51427;-27.442;153.014;2022-10-16T05:30:17;101410.75;;;25.62
64916;BMP280;51427;-27.442;153.014;2022-10-16T05:32:51;101413.06;;;25.19
64916;BMP280;51427;-27.442;153.014;2022-10-16T05:35:19;101424.19;;;24.99
64916;BMP280;51427;-27.442;153.014;2022-10-16T05:37:46;101423.31;;;24.91
64916;BMP280;51427;-27.442;153.014;2022-10-16T05:40:15;101418.50;;;24.55
64916;BMP280;51427;-27.442;153.014;2022-10-16T05:42:43;101416.03;;;24.77
64916;BMP280;51427;-27.442;153.014;2022-10-16T05:45:11;101422.84;;;24.87
64916;BMP280;51427;-27.442;153.014;2022-10-16T05:47:38;101418.53;;;24.70
64916;BMP280;51427;-27.442;153.014;2022-10-16T05:50:06;101416.28;;;25.53
64916;BMP280;51427;-27.442;153.014;2022-10-16T05:52:34;101408.19;;;25.31
64916;BMP280;51427;-27.442;153.014;2022-10-16T05:55:01;101412.09;;;25.66
64916;BMP280;51427;-27.442;153.014;2022-10-16T05:57:28;101412.16;;;25.43
64916;BMP280;51427;-27.442;153.014;2022-10-16T05:59:56;101424.50;;;25.04
64916;BMP280;51427;-27.442;153.014;2022-10-16T06:02:23;101420.00;;;24.73
64916;BMP280;51427;-27.442;153.014;2022-10-16T06:04:52;101417.53;;;24.79
64916;BMP280;51427;-27.442;153.014;2022-10-16T06:07:22;101438.22;;;24.44
64916;BMP280;51427;-27.442;153.014;2022-10-16T06:09:51;101435.63;;;24.19
64916;BMP280;51427;-27.442;153.014;2022-10-16T06:12:19;101431.44;;;24.57
64916;BMP280;51427;-27.442;153.014;2022-10-16T06:14:47;101431.41;;;24.42
64916;BMP280;51427;-27.442;153.014;2022-10-16T06:17:15;101423.06;;;24.21
64916;BMP280;51427;-27.442;153.014;2022-10-16T06:19:42;101438.88;;;23.89
64916;BMP280;51427;-27.442;153.014;2022-10-16T06:22:10;101435.59;;;24.60
64916;BMP280;51427;-27.442;153.014;2022-10-16T06:24:37;101440.88;;;24.44
64916;BMP280;51427;-27.442;153.014;2022-10-16T06:27:04;101441.25;;;24.16
64916;BMP280;51427;-27.442;153.014;2022-10-16T06:29:32;101439.31;;;24.18
64916;BMP280;51427;-27.442;153.014;2022-10-16T06:31:59;101441.69;;;24.45
64916;BMP280;51427;-27.442;153.014;2022-10-16T06:34:26;101435.09;;;24.72
64916;BMP280;51427;-27.442;153.014;2022-10-16T06:36:54;101434.75;;;24.83
64916;BMP280;51427;-27.442;153.014;2022-10-16T06:39:21;101441.38;;;24.56
64916;BMP280;51427;-27.442;153.014;2022-10-16T06:41:48;101453.00;;;24.70
64916;BMP280;51427;-27.442;153.014;2022-10-16T06:44:16;101469.00;;;24.37
64916;BMP280;51427;-27.442;153.014;2022-10-16T06:46:43;101469.88;;;24.05
64916;BMP280;51427;-27.442;153.014;2022-10-16T06:49:10;101453.19;;;24.20
64916;BMP280;51427;-27.442;153.014;2022-10-16T06:51:37;101457.66;;;24.76
64916;BMP280;51427;-27.442;153.014;2022-10-16T06:54:07;101476.00;;;24.05
64916;BMP280;51427;-27.442;153.014;2022-10-16T06:56:35;101471.88;;;24.59
64916;BMP280;51427;-27.442;153.014;2022-10-16T06:59:02;101475.34;;;24.84
64916;BMP280;51427;-27.442;153.014;2022-10-16T07:01:30;101479.75;;;24.36
64916;BMP280;51427;-27.442;153.014;2022-10-16T07:03:58;101499.47;;;24.00
64916;BMP280;51427;-27.442;153.014;2022-10-16T07:06:26;101500.50;;;24.07
64916;BMP280;51427;-27.442;153.014;2022-10-16T07:08:54;101490.28;;;23.79
64916;BMP280;51427;-27.442;153.014;2022-10-16T07:11:22;101482.31;;;24.12
64916;BMP280;51427;-27.442;153.014;2022-10-16T07:13:51;101486.78;;;24.19
64916;BMP280;51427;-27.442;153.014;2022-10-16T07:16:20;101481.91;;;23.99
64916;BMP280;51427;-27.442;153.014;2022-10-16T07:18:48;101486.16;;;24.90
64916;BMP280;51427;-27.442;153.014;2022-10-16T07:21:21;101490.38;;;24.52
64916;BMP280;51427;-27.442;153.014;2022-10-16T07:23:53;101492.75;;;24.70
64916;BMP280;51427;-27.442;153.014;2022-10-16T07:26:21;101502.19;;;24.16
64916;BMP280;51427;-27.442;153.014;2022-10-16T07:28:49;101506.78;;;23.73
64916;BMP280;51427;-27.442;153.014;2022-10-16T07:31:18;101515.53;;;24.32
64916;BMP280;51427;-27.442;153.014;2022-10-16T07:33:46;101513.28;;;24.19
64916;BMP280;51427;-27.442;153.014;2022-10-16T07:36:16;101528.63;;;23.75
64916;BMP280;51427;-27.442;153.014;2022-10-16T07:38:44;101520.94;;;23.89
64916;BMP280;51427;-27.442;153.014;2022-10-16T07:41:15;101524.81;;;24.03
64916;BMP280;51427;-27.442;153.014;2022-10-16T07:43:53;101535.84;;;24.31
64916;BMP280;51427;-27.442;153.014;2022-10-16T07:46:22;101547.53;;;24.38
64916;BMP280;51427;-27.442;153.014;2022-10-16T07:48:50;101552.84;;;24.13
64916;BMP280;51427;-27.442;153.014;2022-10-16T07:51:19;101555.06;;;23.92
64916;BMP280;51427;-27.442;153.014;2022-10-16T07:53:47;101551.00;;;23.80
64916;BMP280;51427;-27.442;153.014;2022-10-16T07:56:15;101554.75;;;23.95
64916;BMP280;51427;-27.442;153.014;2022-10-16T07:58:42;101540.75;;;24.10
64916;BMP280;51427;-27.442;153.014;2022-10-16T08:01:12;101549.88;;;23.83
64916;BMP280;51427;-27.442;153.014;2022-10-16T08:03:50;101551.31;;;24.36
64916;BMP280;51427;-27.442;153.014;2022-10-16T08:06:19;101547.38;;;24.14
64916;BMP280;51427;-27.442;153.014;2022-10-16T08:08:47;101540.78;;;24.18
64916;BMP280;51427;-27.442;153.014;2022-10-16T08:11:14;101554.53;;;24.63
64916;BMP280;51427;-27.442;153.014;2022-10-16T08:13:42;101563.97;;;24.57
64916;BMP280;51427;-27.442;153.014;2022-10-16T08:16:09;101574.25;;;24.60
64916;BMP280;51427;-27.442;153.014;2022-10-16T08:18:38;101584.53;;;23.72
64916;BMP280;51427;-27.442;153.014;2022-10-16T08:21:07;101578.84;;;23.84
64916;BMP280;51427;-27.442;153.014;2022-10-16T08:23:34;101580.22;;;24.21
64916;BMP280;51427;-27.442;153.014;2022-10-16T08:26:05;101590.16;;;23.94
64916;BMP280;51427;-27.442;153.014;2022-10-16T08:28:32;101590.69;;;24.31
64916;BMP280;51427;-27.442;153.014;2022-10-16T08:31:14;101596.13;;;24.62
64916;BMP280;51427;-27.442;153.014;2022-10-16T08:33:44;101598.28;;;25.16
64916;BMP280;51427;-27.442;153.014;2022-10-16T08:36:14;101602.28;;;24.71
64916;BMP280;51427;-27.442;153.014;2022-10-16T08:38:41;101602.72;;;25.00
64916;BMP280;51427;-27.442;153.014;2022-10-16T08:49:30;101613.50;;;23.56
64916;BMP280;51427;-27.442;153.014;2022-10-16T08:51:57;101611.56;;;24.08
64916;BMP280;51427;-27.442;153.014;2022-10-16T08:57:16;101616.72;;;24.35
64916;BMP280;51427;-27.442;153.014;2022-10-16T08:59:44;101621.28;;;24.51
64916;BMP280;51427;-27.442;153.014;2022-10-16T09:05:16;101632.25;;;24.63
64916;BMP280;51427;-27.442;153.014;2022-10-16T09:08:02;101635.31;;;24.43
64916;BMP280;51427;-27.442;153.014;2022-10-16T09:16:22;101639.53;;;24.61
64916;BMP280;51427;-27.442;153.014;2022-10-16T09:21:42;101638.66;;;24.20
64916;BMP280;51427;-27.442;153.014;2022-10-16T09:24:25;101634.47;;;24.17
64916;BMP280;51427;-27.442;153.014;2022-10-16T09:26:52;101634.22;;;24.54
64916;BMP280;51427;-27.442;153.014;2022-10-16T09:29:21;101649.88;;;24.14
64916;BMP280;51427;-27.442;153.014;2022-10-16T09:31:52;101657.63;;;23.90
64916;BMP280;51427;-27.442;153.014;2022-10-16T09:34:35;101659.34;;;24.16
64916;BMP280;51427;-27.442;153.014;2022-10-16T09:37:09;101661.50;;;23.96
64916;BMP280;51427;-27.442;153.014;2022-10-16T09:39:50;101656.34;;;23.94
64916;BMP280;51427;-27.442;153.014;2022-10-16T09:42:30;101663.50;;;23.59
64916;BMP280;51427;-27.442;153.014;2022-10-16T09:44:58;101668.03;;;23.84
64916;BMP280;51427;-27.442;153.014;2022-10-16T09:47:27;101674.28;;;24.00
64916;BMP280;51427;-27.442;153.014;2022-10-16T09:50:13;101669.78;;;23.41
64916;BMP280;51427;-27.442;153.014;2022-10-16T09:52:46;101672.03;;;23.70
64916;BMP280;51427;-27.442;153.014;2022-10-16T09:55:16;101677.22;;;23.97
64916;BMP280;51427;-27.442;153.014;2022-10-16T09:57:54;101678.09;;;24.06
64916;BMP280;51427;-27.442;153.014;2022-10-16T10:00:22;101692.44;;;23.61
64916;BMP280;51427;-27.442;153.014;2022-10-16T10:02:50;101688.94;;;24.12
64916;BMP280;51427;-27.442;153.014;2022-10-16T10:05:26;101690.13;;;23.92
64916;BMP280;51427;-27.442;153.014;2022-10-16T10:08:02;101690.06;;;24.35
64916;BMP280;51427;-27.442;153.014;2022-10-16T10:10:34;101689.72;;;23.87
64916;BMP280;51427;-27.442;153.014;2022-10-16T10:13:03;101683.81;;;23.24
64916;BMP280;51427;-27.442;153.014;2022-10-16T10:15:34;101680.22;;;23.25
64916;BMP280;51427;-27.442;153.014;2022-10-16T10:18:15;101668.25;;;23.56
64916;BMP280;51427;-27.442;153.014;2022-10-16T10:20:43;101678.75;;;23.82
64916;BMP280;51427;-27.442;153.014;2022-10-16T10:23:24;101680.13;;;23.52
64916;BMP280;51427;-27.442;153.014;2022-10-16T10:34:34;101694.28;;;23.77
64916;BMP280;51427;-27.442;153.014;2022-10-16T10:37:30;101695.81;;;23.80
64916;BMP280;51427;-27.442;153.014;2022-10-16T10:43:17;101716.13;;;23.97
64916;BMP280;51427;-27.442;153.014;2022-10-16T10:45:58;101718.66;;;23.63
64916;BMP280;51427;-27.442;153.014;2022-10-16T10:54:06;101727.97;;;24.10
64916;BMP280;51427;-27.442;153.014;2022-10-16T10:59:37;101710.00;;;23.62
64916;BMP280;51427;-27.442;153.014;2022-10-16T11:02:26;101707.78;;;23.92
64916;BMP280;51427;-27.442;153.014;2022-10-16T11:07:45;101720.19;;;24.08
64916;BMP280;51427;-27.442;153.014;2022-10-16T11:10:22;101727.91;;;24.02
64916;BMP280;51427;-27.442;153.014;2022-10-16T11:16:23;101730.44;;;24.29
64916;BMP280;51427;-27.442;153.014;2022-10-16T11:22:16;101739.56;;;24.09
64916;BMP280;51427;-27.442;153.014;2022-10-16T11:30:19;101731.22;;;24.47
64916;BMP280;51427;-27.442;153.014;2022-10-16T11:33:29;101733.22;;;24.45
64916;BMP280;51427;-27.442;153.014;2022-10-16T11:36:13;101728.78;;;23.85
64916;BMP280;51427;-27.442;153.014;2022-10-16T11:49:39;101736.97;;;25.49
64916;BMP280;51427;-27.442;153.014;2022-10-16T11:52:50;101741.72;;;24.81
64916;BMP280;51427;-27.442;153.014;2022-10-16T11:55:23;101730.09;;;25.23
64916;BMP280;51427;-27.442;153.014;2022-10-16T11:57:59;101729.28;;;24.49
64916;BMP280;51427;-27.442;153.014;2022-10-16T12:00:52;101719.47;;;25.07
64916;BMP280;51427;-27.442;153.014;2022-10-16T12:06:25;101726.81;;;24.88
64916;BMP280;51427;-27.442;153.014;2022-10-16T12:08:55;101722.28;;;25.14
64916;BMP280;51427;-27.442;153.014;2022-10-16T12:14:35;101723.59;;;24.69
64916;BMP280;51427;-27.442;153.014;2022-10-16T12:17:23;101715.72;;;24.93
64916;BMP280;51427;-27.442;153.014;2022-10-16T12:23:19;101707.53;;;24.45
64916;BMP280;51427;-27.442;153.014;2022-10-16T12:25:57;101712.00;;;24.45
64916;BMP280;51427;-27.442;153.014;2022-10-16T12:28:32;101702.91;;;24.80
64916;BMP280;51427;-27.442;153.014;2022-10-16T12:31:01;101697.94;;;24.44
64916;BMP280;51427;-27.442;153.014;2022-10-16T12:33:37;101699.22;;;24.65
64916;BMP280;51427;-27.442;153.014;2022-10-16T12:36:26;101692.72;;;24.35
64916;BMP280;51427;-27.442;153.014;2022-10-16T12:38:54;101691.88;;;24.09
64916;BMP280;51427;-27.442;153.014;2022-10-16T12:41:39;101691.84;;;24.01
64916;BMP280;51427;-27.442;153.014;2022-10-16T12:44:24;101682.84;;;24.19
64916;BMP280;51427;-27.442;153.014;2022-10-16T12:46:54;101687.91;;;24.63
64916;BMP280;51427;-27.442;153.014;2022-10-16T12:49:36;101692.88;;;24.58
64916;BMP280;51427;-27.442;153.014;2022-10-16T12:52:22;101693.78;;;24.42
64916;BMP280;51427;-27.442;153.014;2022-10-16T12:54:51;101691.75;;;24.36
64916;BMP280;51427;-27.442;153.014;2022-10-16T13:06:34;101689.25;;;24.59
64916;BMP280;51427;-27.442;153.014;2022-10-16T13:12:41;101699.63;;;24.28
64916;BMP280;51427;-27.442;153.014;2022-10-16T13:21:06;101685.88;;;24.24
64916;BMP280;51427;-27.442;153.014;2022-10-16T13:23:46;101693.19;;;24.05
64916;BMP280;51427;-27.442;153.014;2022-10-16T13:29:03;101695.72;;;24.14
64916;BMP280;51427;-27.442;153.014;2022-10-16T13:31:31;101693.47;;;24.45
64916;BMP280;51427;-27.442;153.014;2022-10-16T13:34:00;101692.66;;;24.02
64916;BMP280;51427;-27.442;153.014;2022-10-16T13:36:33;101691.25;;;24.32
64916;BMP280;51427;-27.442;153.014;2022-10-16T13:39:29;101690.78;;;23.60
64916;BMP280;51427;-27.442;153.014;2022-10-16T13:42:06;101690.44;;;22.84
64916;BMP280;51427;-27.442;153.014;2022-10-16T13:44:43;101683.72;;;22.89
64916;BMP280;51427;-27.442;153.014;2022-10-16T13:47:25;101688.66;;;23.11
64916;BMP280;51427;-27.442;153.014;2022-10-16T13:50:04;101683.94;;;23.66
64916;BMP280;51427;-27.442;153.014;2022-10-16T13:52:32;101682.34;;;23.39
64916;BMP280;51427;-27.442;153.014;2022-10-16T13:54:59;101678.59;;;23.15
64916;BMP280;51427;-27.442;153.014;2022-10-16T13:57:27;101677.78;;;23.83
64916;BMP280;51427;-27.442;153.014;2022-10-16T13:59:54;101673.91;;;24.20
64916;BMP280;51427;-27.442;153.014;2022-10-16T14:02:26;101675.94;;;24.52
64916;BMP280;51427;-27.442;153.014;2022-10-16T14:04:54;101675.09;;;24.51
64916;BMP280;51427;-27.442;153.014;2022-10-16T14:07:28;101661.00;;;23.58
64916;BMP280;51427;-27.442;153.014;2022-10-16T14:09:56;101655.34;;;23.53
64916;BMP280;51427;-27.442;153.014;2022-10-16T14:12:26;101659.56;;;23.28
64916;BMP280;51427;-27.442;153.014;2022-10-16T14:14:54;101645.56;;;23.88
64916;BMP280;51427;-27.442;153.014;2022-10-16T14:17:26;101643.63;;;23.38
64916;BMP280;51427;-27.442;153.014;2022-10-16T14:19:56;101635.22;;;24.02
64916;BMP280;51427;-27.442;153.014;2022-10-16T14:22:41;101629.81;;;24.11
64916;BMP280;51427;-27.442;153.014;2022-10-16T14:28:00;101624.78;;;24.26
64916;BMP280;51427;-27.442;153.014;2022-10-16T14:30:29;101622.53;;;24.39
64916;BMP280;51427;-27.442;153.014;2022-10-16T14:33:02;101618.28;;;24.46
64916;BMP280;51427;-27.442;153.014;2022-10-16T14:35:32;101615.69;;;24.03
64916;BMP280;51427;-27.442;153.014;2022-10-16T14:38:01;101616.16;;;23.56
64916;BMP280;51427;-27.442;153.014;2022-10-16T14:40:32;101605.53;;;24.24
64916;BMP280;51427;-27.442;153.014;2022-10-16T14:43:01;101619.44;;;23.67
64916;BMP280;51427;-27.442;153.014;2022-10-16T14:45:33;101614.31;;;23.14
64916;BMP280;51427;-27.442;153.014;2022-10-16T14:48:06;101610.66;;;23.92
64916;BMP280;51427;-27.442;153.014;2022-10-16T14:50:41;101623.81;;;23.42
64916;BMP280;51427;-27.442;153.014;2022-10-16T14:53:11;101620.25;;;23.51
64916;BMP280;51427;-27.442;153.014;2022-10-16T14:55:40;101620.09;;;23.69
64916;BMP280;51427;-27.442;153.014;2022-10-16T14:58:16;101614.25;;;23.83
64916;BMP280;51427;-27.442;153.014;2022-10-16T15:00:44;101612.53;;;24.00
64916;BMP280;51427;-27.442;153.014;2022-10-16T15:03:11;101617.13;;;24.23
64916;BMP280;51427;-27.442;153.014;2022-10-16T15:05:38;101614.50;;;23.98
64916;BMP280;51427;-27.442;153.014;2022-10-16T15:08:06;101608.34;;;23.72
64916;BMP280;51427;-27.442;153.014;2022-10-16T15:10:40;101609.34;;;23.96
64916;BMP280;51427;-27.442;153.014;2022-10-16T15:13:13;101616.00;;;24.00
64916;BMP280;51427;-27.442;153.014;2022-10-16T15:15:44;101605.66;;;24.14
64916;BMP280;51427;-27.442;153.014;2022-10-16T15:18:12;101609.69;;;23.51
64916;BMP280;51427;-27.442;153.014;2022-10-16T15:20:42;101595.25;;;23.28
64916;BMP280;51427;-27.442;153.014;2022-10-16T15:23:21;101589.34;;;23.16
64916;BMP280;51427;-27.442;153.014;2022-10-16T15:28:16;101579.38;;;23.28
64916;BMP280;51427;-27.442;153.014;2022-10-16T15:30:45;101576.09;;;23.51
64916;BMP280;51427;-27.442;153.014;2022-10-16T15:33:18;101576.75;;;23.70
64916;BMP280;51427;-27.442;153.014;2022-10-16T15:35:52;101563.47;;;23.88
64916;BMP280;51427;-27.442;153.014;2022-10-16T15:38:21;101565.78;;;23.65
64916;BMP280;51427;-27.442;153.014;2022-10-16T15:40:49;101576.50;;;23.39
64916;BMP280;51427;-27.442;153.014;2022-10-16T15:43:17;101574.47;;;23.33
64916;BMP280;51427;-27.442;153.014;2022-10-16T15:46:02;101564.59;;;23.85